Time;durP1;ratioP1;P1;durP2;ratioP2;P2;SDS_P1;SDS_P2;PMS_P1;PMS_P2;Temp;Humidity;BMP_temperature;BMP_pressure;BME280_temperature;BME280_humidity;BME280_pressure;Samples;Min_cycle;Max_cycle;Signal;HPM_P1;HPM_P2
2022/11/27 00:01:37;;;;;;;27.30;13.30;;;;;;;8.33;100.00;102464.41;4903686;29;20420;-67
2022/11/27 00:04:07;;;;;;;37.85;16.02;;;8.60;99.90;;;8.40;100.00;102461.97;4897264;29;20972;-66
2022/11/27 00:06:38;;;;;;;26.30;14.85;;;;;;;8.24;100.00;102466.13;4901563;29;20202;-67
2022/11/27 00:09:13;;;;;;;29.08;14.70;;;8.30;99.90;;;8.32;100.00;102465.41;4892771;29;20198;-68
2022/11/27 00:11:43;;;;;;;27.00;14.20;;;8.40;99.90;;;8.23;100.00;102463.56;4908304;29;20212;-69
2022/11/27 00:14:15;;;;;;;32.80;14.90;;;8.30;99.90;;;8.23;100.00;102460.84;4894052;29;20455;-68
2022/11/27 00:16:44;;;;;;;25.17;13.70;;;8.30;99.90;;;8.29;100.00;102461.16;4913536;29;20984;-67
2022/11/27 00:19:13;;;;;;;33.03;14.07;;;8.30;99.90;;;8.21;100.00;102458.34;4907773;29;20416;-68
2022/11/27 00:21:41;;;;;;;33.00;14.80;;;8.30;99.90;;;8.31;100.00;102454.78;4903401;29;20454;-67
2022/11/27 00:24:12;;;;;;;31.50;14.40;;;8.40;99.90;;;8.45;100.00;102459.66;4906897;29;20497;-68
2022/11/27 00:26:41;;;;;;;22.47;11.80;;;8.50;99.90;;;8.43;100.00;102448.16;4896899;29;20413;-67
2022/11/27 00:29:10;;;;;;;27.07;14.10;;;8.50;99.90;;;8.45;100.00;102448.88;4891174;29;20982;-67
2022/11/27 00:31:39;;;;;;;36.88;11.93;;;8.50;99.90;;;8.44;100.00;102447.16;4890832;29;20452;-68
2022/11/27 00:34:10;;;;;;;26.73;12.40;;;8.50;99.90;;;8.44;100.00;102450.72;4911346;29;20220;-68
2022/11/27 00:36:39;;;;;;;25.85;12.60;;;8.50;99.90;;;8.52;100.00;102455.38;4908587;29;20421;-68
2022/11/27 00:39:15;;;;;;;29.10;12.45;;;8.50;99.90;;;8.42;100.00;102449.19;4894958;29;20630;-67
2022/11/27 00:41:44;;;;;;;19.02;12.32;;;8.50;99.90;;;8.50;100.00;102451.97;4895618;29;20617;-67
2022/11/27 00:44:13;;;;;;;25.50;13.50;;;8.50;99.90;;;8.45;100.00;102456.97;4884899;29;20246;-67
2022/11/27 00:46:42;;;;;;;22.43;11.03;;;8.40;99.90;;;8.48;100.00;102452.09;4892222;29;20202;-68
2022/11/27 00:49:14;;;;;;;19.45;10.80;;;8.50;99.90;;;8.41;100.00;102445.63;4905405;29;20548;-69
2022/11/27 00:51:43;;;;;;;23.63;11.67;;;8.40;99.90;;;8.54;100.00;102446.13;4892084;29;20198;-67
2022/11/27 00:54:12;;;;;;;17.23;12.95;;;8.50;99.90;;;8.47;100.00;102438.78;4895167;29;20429;-68
2022/11/27 00:56:42;;;;;;;24.20;12.80;;;8.50;99.90;;;8.45;100.00;102438.06;4907920;29;20230;-67
2022/11/27 00:59:12;;;;;;;33.40;14.53;;;8.40;99.90;;;8.55;100.00;102446.97;4895278;29;20421;-68
2022/11/27 01:01:43;;;;;;;23.27;10.98;;;8.50;99.90;;;8.49;100.00;102447.56;4899289;29;20499;-68
2022/11/27 01:04:15;;;;;;;26.77;13.77;;;8.50;99.90;;;8.51;100.00;102442.88;4909608;29;20228;-69
2022/11/27 01:06:45;;;;;;;20.33;12.02;;;8.50;99.90;;;8.44;100.00;102441.78;4909842;29;20630;-67
2022/11/27 01:09:14;;;;;;;18.92;9.82;;;8.50;99.90;;;8.43;100.00;102443.63;4897453;29;20198;-67
2022/11/27 01:11:45;;;;;;;20.05;13.02;;;8.40;99.90;;;8.38;100.00;102440.53;4902941;29;20674;-67
2022/11/27 01:14:17;;;;;;;16.42;10.02;;;8.40;99.90;;;8.35;100.00;102442.69;4905779;29;20702;-68
2022/11/27 01:16:46;;;;;;;21.88;9.88;;;8.40;99.90;;;8.42;100.00;102436.53;4909111;29;20190;-67
2022/11/27 01:19:16;;;;;;;19.30;9.43;;;8.40;99.90;;;8.18;100.00;102428.13;4902837;29;20277;-69
2022/11/27 01:21:45;;;;;;;28.60;10.02;;;8.30;99.90;;;8.32;100.00;102419.56;4893920;29;20194;-69
2022/11/27 01:24:16;;;;;;;25.13;9.18;;;8.30;99.90;;;8.44;100.00;102422.88;4900369;29;20221;-67
2022/11/27 01:26:46;;;;;;;21.38;11.85;;;8.40;99.90;;;8.32;100.00;102424.09;4905223;29;20616;-68
2022/11/27 01:29:15;;;;;;;19.93;10.13;;;8.30;99.90;;;8.32;100.00;102427.66;4920992;29;20198;-71
2022/11/27 01:31:43;;;;;;;20.17;9.23;;;8.30;99.90;;;8.41;99.95;102425.91;4906920;29;20410;-69
2022/11/27 01:34:17;;;;;;;17.60;9.43;;;8.40;99.90;;;8.35;99.36;102423.78;4924834;29;20436;-67
2022/11/27 01:36:46;;;;;;;18.75;8.73;;;8.30;99.90;;;8.27;100.00;102424.53;4920513;29;20503;-68
2022/11/27 01:39:17;;;;;;;24.80;11.70;;;8.30;99.90;;;8.18;99.86;102423.56;4905517;29;20194;-68
2022/11/27 01:41:49;;;;;;;15.38;9.88;;;8.20;99.90;;;8.10;99.47;102420.75;4911366;29;20195;-69
2022/11/27 01:44:54;;;;;;;19.23;9.02;;;8.20;99.90;;;8.31;99.89;102411.63;4898853;29;20608;-68
2022/11/27 01:47:40;;;;;;;15.43;7.43;;;8.20;99.90;;;8.25;98.73;102397.69;4902406;29;20698;-67
2022/11/27 01:50:23;;;;;;;17.42;8.52;;;8.20;99.90;;;8.29;98.59;102393.72;4905827;29;20741;-69
2022/11/27 01:52:57;;;;;;;14.15;9.02;;;8.30;99.90;;;8.27;98.85;102387.63;4903873;29;20198;-69
2022/11/27 01:55:33;;;;;;;17.48;9.50;;;8.30;99.90;;;8.37;97.69;102378.66;4898663;29;20198;-68
2022/11/27 01:58:09;;;;;;;21.35;9.27;;;8.30;99.90;;;8.22;98.79;102381.81;4900334;29;20713;-66
2022/11/27 02:00:39;;;;;;;14.70;9.17;;;8.30;99.90;;;8.17;98.61;102378.72;4899731;29;20201;-68
2022/11/27 02:03:07;;;;;;;17.53;8.23;;;8.20;99.90;;;8.16;98.50;102378.88;4900324;29;20459;-68
2022/11/27 02:05:38;;;;;;;13.95;7.65;;;8.20;99.90;;;8.17;98.87;102376.03;4896858;29;20476;-68
2022/11/27 02:08:11;;;;;;;17.85;9.48;;;8.20;99.90;;;8.22;98.55;102375.59;4901853;29;20198;-65
2022/11/27 02:10:49;;;;;;;15.50;9.57;;;8.20;99.90;;;8.14;98.18;102370.91;4899885;29;20751;-67
2022/11/27 02:13:30;;;;;;;18.20;9.13;;;8.10;99.90;;;8.23;98.39;102372.72;4896022;29;20214;-67
2022/11/27 02:16:12;;;;;;;17.95;8.80;;;8.20;99.90;;;8.17;97.87;102372.47;4900569;29;20193;-66
2022/11/27 02:18:57;;;;;;;16.75;8.13;;;8.20;99.90;;;8.13;97.69;102363.81;4890108;29;20592;-67
2022/11/27 02:21:47;;;;;;;16.73;9.93;;;8.20;99.90;;;8.08;96.63;102363.47;4897318;29;20191;-69
2022/11/27 02:24:51;;;;;;;22.38;8.65;;;8.20;99.90;;;7.93;97.47;102364.09;4897580;29;20722;-68
2022/11/27 02:27:54;;;;;;;12.30;8.13;;;8.10;99.90;;;7.75;97.98;102362.16;4891369;29;20222;-67
2022/11/27 02:30:24;;;;;;;18.67;8.73;;;8.00;99.90;;;7.69;99.17;102365.47;4898303;29;20259;-66
2022/11/27 02:32:59;;;;;;;11.88;8.32;;;7.90;99.90;;;7.74;99.76;102370.44;4900312;29;20197;-68
2022/11/27 02:35:36;;;;;;;13.88;7.70;;;7.90;99.90;;;7.78;100.00;102369.13;4899643;29;20693;-67
2022/11/27 02:38:11;;;;;;;20.45;9.07;;;7.90;99.90;;;7.92;99.82;102357.00;4907768;29;20208;-68
2022/11/27 02:40:49;;;;;;;12.45;9.10;;;7.90;99.90;;;7.74;99.86;102362.34;4907556;29;20586;-66
2022/11/27 02:43:29;;;;;;;17.30;9.38;;;7.80;99.90;;;7.79;99.81;102365.44;4895500;29;20273;-64
2022/11/27 02:46:03;;;;;;;15.25;9.63;;;7.80;99.90;;;7.70;99.17;102361.75;4954474;29;20200;-82
2022/11/27 02:48:42;;;;;;;16.75;10.23;;;7.80;99.90;;;7.71;99.87;102360.78;4940096;29;20668;-81
2022/11/27 02:51:13;;;;;;;20.55;10.68;;;7.80;99.90;;;7.83;99.48;102364.16;4920676;29;20201;-82
2022/11/27 02:53:49;;;;;;;19.70;8.77;;;7.80;99.90;;;7.82;99.34;102363.28;4922516;29;20285;-82
2022/11/27 02:56:24;;;;;;;21.05;9.93;;;7.90;99.90;;;7.78;99.67;102366.44;4921271;29;20201;-82
2022/11/27 02:59:00;;;;;;;21.50;9.38;;;7.90;99.90;;;7.76;99.93;102368.41;4908418;29;20226;-81
2022/11/27 03:01:39;;;;;;;24.33;10.30;;;7.80;99.90;;;7.80;99.96;102365.28;4918774;29;20276;-81
2022/11/27 03:04:15;;;;;;;26.88;11.23;;;7.80;99.90;;;7.82;99.69;102363.28;4926777;29;20217;-80
2022/11/27 03:06:51;;;;;;;16.80;11.68;;;7.90;99.90;;;7.78;99.79;102363.75;4941421;29;20181;-81
2022/11/27 03:09:27;;;;;;;14.75;9.70;;;7.80;99.90;;;7.86;99.58;102355.75;4943743;28;20225;-81
2022/11/27 03:11:56;;;;;;;16.40;10.07;;;7.80;99.90;;;7.68;100.00;102354.84;4936201;28;20221;-81
2022/11/27 03:14:26;;;;;;;11.85;8.23;;;7.70;99.90;;;7.80;100.00;102353.66;4940574;29;20201;-80
2022/11/27 03:17:10;;;;;;;19.85;9.23;;;7.80;99.90;;;7.62;100.00;102361.66;4929720;29;20190;-81
2022/11/27 03:19:49;;;;;;;17.83;8.98;;;7.70;99.90;;;7.50;100.00;102362.00;4910577;29;20206;-81
2022/11/27 03:22:18;;;;;;;19.63;8.57;;;7.60;99.90;;;7.45;100.00;102348.97;4917831;29;20200;-82
2022/11/27 03:24:48;;;;;;;16.00;8.43;;;7.60;99.90;;;7.33;100.00;102352.81;4922665;29;20217;-82
2022/11/27 03:27:27;;;;;;;19.67;10.27;;;7.40;99.90;;;7.31;100.00;102352.97;4921320;29;20548;-81
2022/11/27 03:30:02;;;;;;;20.65;8.98;;;7.40;99.90;;;7.42;100.00;102355.50;4921338;29;20205;-83
2022/11/27 03:32:34;;;;;;;16.60;8.52;;;7.50;99.90;;;7.38;100.00;102354.09;4922009;29;20217;-83
2022/11/27 03:35:08;;;;;;;16.15;8.63;;;7.50;99.90;;;7.48;100.00;102359.44;4920098;29;20248;-82
2022/11/27 03:37:37;;;;;;;16.38;8.75;;;7.50;99.90;;;7.41;100.00;102359.19;4923228;29;20638;-81
2022/11/27 03:40:09;;;;;;;14.50;9.10;;;7.50;99.90;;;7.66;100.00;102362.22;4912601;29;20269;-82
2022/11/27 03:42:57;;;;;;;12.02;8.02;;;7.60;99.90;;;7.55;100.00;102365.13;4924733;29;20198;-81
2022/11/27 03:45:35;;;;;;;14.80;8.93;;;7.60;99.90;;;7.65;100.00;102360.53;4904775;29;20225;-82
2022/11/27 03:48:23;;;;;;;27.17;9.07;;;7.60;99.90;;;7.58;100.00;102359.41;4904665;29;20212;-82
2022/11/27 03:51:08;;;;;;;13.63;9.23;;;7.60;99.90;;;7.67;99.16;102359.38;4909128;29;20273;-82
2022/11/27 03:53:52;;;;;;;18.63;8.48;;;7.70;99.90;;;7.72;99.01;102356.25;4922230;29;20189;-83
2022/11/27 03:56:38;;;;;;;20.20;7.43;;;7.70;99.90;;;7.66;98.52;102356.81;4916214;29;20202;-81
2022/11/27 03:59:16;;;;;;;11.63;8.45;;;7.70;99.90;;;7.52;98.44;102349.22;4923063;29;20249;-84
2022/11/27 04:01:45;;;;;;;24.73;9.27;;;7.70;99.90;;;7.47;98.95;102355.06;4916367;29;20204;-82
2022/11/27 04:04:16;;;;;;;23.98;8.43;;;7.60;99.90;;;7.31;99.68;102358.34;4903828;29;20646;-82
2022/11/27 04:06:44;;;;;;;19.23;9.23;;;7.40;99.90;;;7.38;100.00;102359.47;4914056;29;20202;-81
2022/11/27 04:09:13;;;;;;;23.10;9.82;;;7.40;99.90;;;7.29;100.00;102364.88;4902200;29;20218;-83
2022/11/27 04:11:42;;;;;;;14.90;9.70;;;7.40;99.90;;;7.37;100.00;102356.91;4908835;29;20204;-83
2022/11/27 04:14:11;;;;;;;26.45;7.75;;;7.30;99.90;;;7.44;100.00;102349.97;4921258;29;20193;-83
2022/11/27 04:16:40;;;;;;;16.20;9.93;;;7.40;99.90;;;7.53;99.49;102342.84;4902038;29;20186;-82
2022/11/27 04:19:09;;;;;;;16.58;8.40;;;7.50;99.90;;;7.48;98.82;102345.13;4908157;29;20222;-81
2022/11/27 04:21:39;;;;;;;15.40;8.20;;;7.50;99.90;;;7.46;98.01;102350.66;4902571;29;20226;-81
2022/11/27 04:24:08;;;;;;;12.55;7.75;;;7.50;99.90;;;7.46;97.69;102350.66;4916967;29;20273;-82
2022/11/27 04:26:36;;;;;;;17.80;8.85;;;7.50;99.90;;;7.38;97.16;102358.63;4921541;29;20186;-81
2022/11/27 04:29:05;;;;;;;12.40;8.20;;;7.50;99.90;;;7.29;98.03;102354.97;4920686;29;20277;-81
2022/11/27 04:31:34;;;;;;;23.17;8.80;;;7.40;99.90;;;7.13;98.75;102354.72;4919754;29;20204;-83
2022/11/27 04:34:03;;;;;;;13.80;7.63;;;7.30;99.90;;;7.14;99.87;102355.56;4915322;29;20193;-81
2022/11/27 04:36:31;;;;;;;15.18;9.40;;;7.20;99.90;;;7.05;99.60;102354.59;4917104;29;20539;-81
2022/11/27 04:39:08;;;;;;;9.98;6.63;;;7.20;99.90;;;7.20;100.00;102349.59;4921163;29;20208;-82
2022/11/27 04:41:37;;;;;;;15.32;9.90;;;7.20;99.90;;;7.21;100.00;102352.13;4921997;29;20190;-81
2022/11/27 04:44:05;;;;;;;16.80;8.75;;;7.20;99.90;;;7.05;99.44;102351.91;4921246;29;20209;-79
2022/11/27 04:46:34;;;;;;;20.73;9.50;;;7.10;99.90;;;6.99;99.70;102356.00;4923605;29;20213;-79
2022/11/27 04:49:03;;;;;;;20.15;8.55;;;7.10;99.90;;;6.85;100.00;102360.97;4925167;29;20599;-80
2022/11/27 04:51:32;;;;;;;13.13;8.75;;;7.00;99.90;;;6.62;100.00;102356.88;4924375;29;20197;-81
2022/11/27 04:54:01;;;;;;;15.20;10.45;;;6.80;99.90;;;6.70;100.00;102359.69;4915316;29;20204;-82
2022/11/27 04:56:31;;;;;;;15.35;11.30;;;6.80;99.90;;;6.59;100.00;102352.59;4910487;29;20296;-82
2022/11/27 04:59:00;;;;;;;18.42;11.38;;;6.70;99.90;;;6.45;100.00;102347.66;4922472;29;20282;-81
2022/11/27 05:01:29;;;;;;;20.23;10.90;;;6.70;99.90;;;6.35;100.00;102355.69;4913230;29;20683;-82
2022/11/27 05:03:57;;;;;;;13.63;9.45;;;6.60;99.90;;;6.29;100.00;102348.22;4915901;29;20664;-80
2022/11/27 05:06:26;;;;;;;19.40;11.52;;;6.50;99.90;;;6.16;100.00;102354.81;4921951;29;20205;-83
2022/11/27 05:09:00;;;;;;;18.52;12.18;;;6.40;99.90;;;6.06;100.00;102357.47;4921756;29;20216;-81
2022/11/27 05:11:31;;;;;;;20.02;12.50;;;6.30;99.90;;;6.05;100.00;102350.44;4920339;29;20250;-83
2022/11/27 05:14:16;;;;;;;16.98;10.23;;;6.20;99.90;;;5.96;100.00;102348.53;4918997;29;20201;-82
2022/11/27 05:16:48;;;;;;;23.42;10.00;;;6.10;99.90;;;6.12;100.00;102346.19;4921820;29;20637;-81
2022/11/27 05:19:20;;;;;;;15.50;10.88;;;6.20;99.90;;;5.99;100.00;102356.34;4921792;29;20240;-81
2022/11/27 05:21:50;;;;;;;17.65;11.85;;;6.10;99.90;;;5.79;100.00;102354.53;4928326;29;20292;-80
2022/11/27 05:24:22;;;;;;;15.10;8.90;;;6.10;99.90;;;5.64;100.00;102364.78;4927172;29;20190;-82
2022/11/27 05:26:53;;;;;;;16.00;9.52;;;5.90;99.90;;;5.48;100.00;102362.59;4927703;29;20237;-81
2022/11/27 05:29:23;;;;;;;18.85;9.98;;;5.80;99.90;;;5.64;100.00;102360.28;4929309;29;20252;-82
2022/11/27 05:31:53;;;;;;;16.50;9.05;;;5.80;99.90;;;5.62;100.00;102364.06;4921232;29;20217;-83
2022/11/27 05:34:22;;;;;;;20.38;12.13;;;5.80;99.90;;;5.35;100.00;102356.59;4916464;29;20252;-84
2022/11/27 05:36:51;;;;;;;14.13;10.75;;;5.60;99.90;;;5.18;100.00;102357.22;4921161;29;20823;-82
2022/11/27 05:39:20;;;;;;;13.60;10.02;;;5.50;99.90;;;5.38;100.00;102348.25;4910186;29;20222;-82
2022/11/27 05:41:49;;;;;;;15.13;10.77;;;5.60;99.90;;;5.34;100.00;102354.88;4919834;29;20232;-82
2022/11/27 05:44:20;;;;;;;21.00;11.07;;;5.60;99.90;;;5.30;100.00;102366.88;4907191;29;20577;-81
2022/11/27 05:46:48;;;;;;;22.80;11.63;;;5.50;99.90;;;5.14;100.00;102358.44;4931350;29;20622;-82
2022/11/27 05:49:17;;;;;;;18.70;10.40;;;5.40;99.90;;;4.96;100.00;102360.00;4910877;29;20210;-82
2022/11/27 05:51:46;;;;;;;22.33;11.73;;;5.30;99.90;;;4.86;100.00;102365.31;4929485;29;20186;-81
2022/11/27 05:54:19;;;;;;;19.75;12.00;;;5.20;99.90;;;4.96;100.00;102360.00;4940890;29;20253;-81
2022/11/27 05:56:48;;;;;;;18.27;11.38;;;5.20;99.90;;;5.00;100.00;102348.03;4920971;29;20186;-81
2022/11/27 05:59:17;;;;;;;17.85;11.15;;;5.20;99.90;;;4.96;100.00;102349.28;4919499;29;20213;-81
2022/11/27 06:01:48;;;;;;;15.35;10.70;;;5.10;99.90;;;4.98;100.00;102347.31;4925022;29;20308;-82
2022/11/27 06:04:17;;;;;;;18.38;11.02;;;5.10;99.90;;;4.80;100.00;102337.16;4925823;29;20200;-82
2022/11/27 06:06:46;;;;;;;14.75;10.10;;;5.00;99.90;;;4.86;100.00;102343.84;4926298;29;20285;-82
2022/11/27 06:09:14;;;;;;;17.13;11.73;;;5.00;99.90;;;4.90;100.00;102339.91;4926749;29;20221;-84
2022/11/27 06:11:43;;;;;;;25.92;11.13;;;5.10;99.90;;;5.05;100.00;102337.75;4927075;29;20276;-80
2022/11/27 06:14:12;;;;;;;29.60;13.95;;;5.20;99.90;;;4.77;100.00;102333.91;4924275;29;20202;-81
2022/11/27 06:16:41;;;;;;;19.05;12.60;;;5.00;99.90;;;4.97;100.00;102332.19;4918185;29;20189;-82
2022/11/27 06:19:11;;;;;;;24.80;11.75;;;5.10;99.90;;;4.89;100.00;102332.03;4922585;29;20637;-82
2022/11/27 06:21:40;;;;;;;19.88;12.32;;;5.00;99.90;;;4.90;100.00;102323.81;4925638;29;20189;-82
2022/11/27 06:24:09;;;;;;;17.85;10.18;;;5.10;99.90;;;4.88;100.00;102324.94;4926171;29;20657;-80
2022/11/27 06:26:37;;;;;;;17.63;10.48;;;5.00;99.90;;;4.85;100.00;102309.09;4918431;29;20214;-81
2022/11/27 06:29:06;;;;;;;19.20;12.40;;;5.10;99.90;;;4.92;100.00;102311.13;4915983;29;20289;-81
2022/11/27 06:31:35;;;;;;;16.70;9.82;;;5.10;99.90;;;4.80;100.00;102315.69;4940459;29;20193;-81
2022/11/27 06:34:05;;;;;;;23.25;10.40;;;5.00;99.90;;;4.68;100.00;102324.81;4936869;29;20209;-83
2022/11/27 06:36:39;;;;;;;16.08;10.00;;;4.90;99.90;;;4.98;100.00;102320.50;4927250;29;20198;-81
2022/11/27 06:39:11;;;;;;;20.17;11.65;;;5.10;99.90;;;4.99;100.00;102324.84;4923878;29;20237;-83
2022/11/27 06:41:41;;;;;;;21.20;10.93;;;5.10;99.90;;;4.84;100.00;102323.50;4924902;29;20205;-81
2022/11/27 06:44:10;;;;;;;17.48;9.93;;;5.00;99.90;;;4.88;100.00;102324.94;4924426;29;20216;-83
2022/11/27 06:46:39;;;;;;;22.77;11.38;;;5.00;99.90;;;4.90;100.00;102331.00;4922810;29;20209;-82
2022/11/27 06:49:09;;;;;;;24.98;13.32;;;5.00;99.90;;;4.77;100.00;102324.03;4924942;29;20232;-81
2022/11/27 06:51:40;;;;;;;19.65;10.85;;;5.00;99.90;;;4.78;100.00;102317.69;4923599;29;20193;-82
2022/11/27 06:54:08;;;;;;;23.52;10.13;;;4.90;99.90;;;4.82;100.00;102321.81;4922208;29;20222;-81
2022/11/27 06:56:37;;;;;;;22.40;10.35;;;4.90;99.90;;;4.78;100.00;102335.59;4907209;29;20296;-81
2022/11/27 06:59:06;;;;;;;12.52;9.52;;;4.90;99.90;;;4.67;100.00;102332.97;4917125;29;20225;-82
2022/11/27 07:01:35;;;;;;;15.88;11.27;;;4.90;99.90;;;4.71;100.00;102329.91;4924001;29;20201;-82
2022/11/27 07:04:04;;;;;;;15.70;10.77;;;4.80;99.90;;;4.78;100.00;102325.72;4926216;29;20201;-81
2022/11/27 07:06:33;;;;;;;14.48;9.70;;;4.90;99.90;;;4.85;100.00;102331.41;4930387;29;20209;-82
2022/11/27 07:09:03;;;;;;;19.80;11.32;;;4.90;99.90;;;4.99;100.00;102327.53;4934651;29;20218;-80
2022/11/27 07:11:33;;;;;;;27.88;12.93;;;5.00;99.90;;;4.86;100.00;102332.25;4930770;29;20185;-82
2022/11/27 07:14:06;;;;;;;16.90;10.48;;;5.00;99.90;;;4.81;100.00;102322.78;4937331;29;20203;-81
2022/11/27 07:16:36;;;;;;;23.13;13.30;;;4.90;99.90;;;4.88;100.00;102306.16;4941012;29;20194;-81
2022/11/27 07:19:07;;;;;;;23.45;11.70;;;4.90;99.90;;;4.82;100.00;102300.34;4924442;29;20217;-82
2022/11/27 07:21:38;;;;;;;17.13;10.27;;;4.90;99.90;;;4.73;100.00;102295.75;4937825;29;20205;-80
2022/11/27 07:24:08;;;;;;;31.30;12.75;;;4.80;99.90;;;4.77;100.00;102299.88;4925042;29;20240;-80
2022/11/27 07:26:37;;;;;;;21.05;11.50;;;4.90;99.90;;;4.95;100.00;102299.28;4928465;29;20230;-81
2022/11/27 07:29:06;;;;;;;17.92;11.60;;;5.00;99.90;;;4.81;100.00;102306.69;4932378;29;20214;-81
2022/11/27 07:31:35;;;;;;;21.85;10.93;;;4.90;99.90;;;4.86;100.00;102308.13;4921236;29;20206;-81
2022/11/27 07:34:04;;;;;;;28.25;12.82;;;4.90;99.90;;;4.92;100.00;102307.59;4915852;29;20607;-81
2022/11/27 07:36:40;;;;;;;18.80;11.45;;;5.00;99.90;;;4.76;100.00;102302.69;4914475;29;20197;-81
2022/11/27 07:39:10;;;;;;;16.80;10.80;;;4.90;99.90;;;4.71;100.00;102303.06;4918896;29;20213;-81
2022/11/27 07:41:39;;;;;;;17.83;10.02;;;4.80;99.90;;;4.93;100.00;102296.75;4921531;29;20264;-82
2022/11/27 07:44:09;;;;;;;25.65;12.18;;;4.90;99.90;;;5.00;100.00;102294.38;4921756;29;20213;-79
2022/11/27 07:46:38;;;;;;;41.83;12.85;;;5.00;99.90;;;5.06;100.00;102285.81;4922347;29;20206;-80
2022/11/27 07:49:07;;;;;;;16.90;9.52;;;5.10;99.90;;;5.26;100.00;102287.59;4922626;29;20213;-81
2022/11/27 07:51:35;;;;;;;14.48;10.10;;;5.20;99.90;;;5.08;100.00;102286.53;4923385;29;20244;-82
2022/11/27 07:54:05;;;;;;;37.75;12.05;;;5.20;99.90;;;4.96;100.00;102290.25;4902901;29;20194;-80
2022/11/27 07:56:35;;;;;;;17.92;10.32;;;5.00;99.90;;;4.81;100.00;102293.28;4909636;29;20660;-81
2022/11/27 07:59:03;;;;;;;19.50;10.77;;;5.00;99.90;;;5.00;100.00;102284.50;4919033;29;20233;-80
2022/11/27 08:01:32;;;;;;;14.05;10.77;;;5.00;99.90;;;4.97;100.00;102286.59;4912292;29;20201;-80
2022/11/27 08:04:01;;;;;;;16.27;11.20;;;5.00;99.90;;;4.94;100.00;102294.91;4924698;29;20193;-81
2022/11/27 08:06:30;;;;;;;19.65;10.55;;;5.00;99.90;;;4.95;100.00;102293.91;4917630;29;20207;-82
2022/11/27 08:08:59;;;;;;;17.65;9.70;;;5.00;99.90;;;4.96;100.00;102290.25;4926098;29;20267;-81
2022/11/27 08:11:31;;;;;;;18.90;9.10;;;5.10;99.90;;;5.07;100.00;102292.88;4907963;29;20210;-82
2022/11/27 08:14:04;;;;;;;17.50;11.68;;;5.00;99.90;;;4.97;99.12;102278.53;4924997;29;20221;-82
2022/11/27 08:16:35;;;;;;;14.90;8.52;;;5.10;99.90;;;4.95;99.15;102283.19;4935790;29;20185;-81
2022/11/27 08:19:04;;;;;;;26.67;10.25;;;5.00;99.90;;;4.95;99.33;102277.81;4932921;29;20622;-79
2022/11/27 08:21:33;;;;;;;17.95;8.35;;;5.10;99.90;;;5.00;99.33;102271.06;4936628;29;20212;-82
2022/11/27 08:24:02;;;;;;;20.45;10.30;;;5.10;99.90;;;5.21;99.67;102277.28;4940225;29;20253;-81
2022/11/27 08:26:31;;;;;;;17.27;10.23;;;5.20;99.90;;;5.33;98.63;102278.00;4920085;29;20198;-80
2022/11/27 08:29:02;;;;;;;12.48;8.65;;;5.30;99.90;;;5.26;95.92;102282.25;4920782;29;20202;-79
2022/11/27 08:31:30;;;;;;;16.33;9.93;;;5.30;99.90;;;5.32;96.79;102281.72;4921460;29;20225;-79
2022/11/27 08:34:00;;;;;;;19.20;11.20;;;5.30;99.90;;;5.45;96.27;102270.72;4935599;29;20177;-80
2022/11/27 08:36:30;;;;;;;24.98;9.88;;;5.40;99.90;;;5.62;95.77;102276.28;4933700;29;20243;-82
2022/11/27 08:38:59;;;;;;;17.40;11.45;;;5.60;99.90;;;5.46;94.86;102278.66;4924638;29;20417;-84
2022/11/27 08:41:28;;;;;;;15.93;10.07;;;5.50;99.90;;;5.52;95.38;102274.56;4915271;29;20205;-80
2022/11/27 08:43:56;;;;;;;17.50;10.27;;;5.50;99.90;;;5.71;94.41;102263.06;4906102;29;20306;-83
2022/11/27 08:46:28;;;;;;;13.60;8.15;;;5.70;99.90;;;5.76;94.44;102268.88;4920033;29;20209;-81
2022/11/27 08:48:58;;;;;;;15.93;9.02;;;5.70;99.90;;;5.82;93.59;102281.72;4940483;29;20225;-81
2022/11/27 08:51:27;;;;;;;19.10;8.32;;;5.80;99.90;;;5.72;91.91;102287.06;4907187;29;20250;-83
2022/11/27 08:53:56;;;;;;;23.88;8.45;;;5.70;99.90;;;5.53;92.73;102278.94;4932989;29;20202;-81
2022/11/27 08:56:26;;;;;;;15.50;8.95;;;5.60;99.90;;;5.53;93.26;102263.69;4908764;29;20207;-82
2022/11/27 08:58:56;;;;;;;19.60;10.57;;;5.60;99.90;;;5.55;92.80;102259.03;4924754;29;20228;-83
2022/11/27 09:01:29;;;;;;;13.27;8.75;;;5.60;99.90;;;5.79;93.56;102274.81;4925689;29;20281;-83
2022/11/27 09:03:59;;;;;;;14.70;8.57;;;5.70;99.90;;;5.86;92.03;102267.00;4926127;29;20185;-82
2022/11/27 09:06:32;;;;;;;21.38;8.68;;;5.80;99.90;;;5.88;92.40;102278.53;4915935;29;20265;-82
2022/11/27 09:09:05;;;;;;;15.07;8.88;;;5.80;99.90;;;6.23;91.20;102276.19;4910143;29;20232;-84
2022/11/27 09:11:35;;;;;;;17.52;9.43;;;6.10;99.90;;;6.08;90.06;102269.50;4911010;29;20268;-83
2022/11/27 09:14:07;;;;;;;14.70;9.02;;;6.10;99.90;;;6.09;89.79;102281.97;4920311;29;20234;-84
2022/11/27 09:16:38;;;;;;;24.73;10.93;;;6.10;99.90;;;5.96;89.75;102267.91;4911809;29;20201;-82
2022/11/27 09:19:07;;;;;;;16.13;10.90;;;6.00;99.90;;;6.10;90.58;102272.88;4925357;29;20220;-84
2022/11/27 09:21:37;;;;;;;14.70;10.18;;;6.10;99.90;;;6.36;88.62;102273.19;4925974;29;20206;-82
2022/11/27 09:24:07;;;;;;;16.30;10.18;;;6.20;99.90;;;6.37;88.10;102269.53;4925603;29;20213;-83
2022/11/27 09:26:36;;;;;;;12.40;9.02;;;6.30;99.90;;;6.54;88.92;102268.81;4922125;29;20206;-82
2022/11/27 09:29:05;;;;;;;15.02;9.55;;;6.40;99.90;;;6.53;87.86;102269.81;4908625;29;20833;-81
2022/11/27 09:31:34;;;;;;;17.48;10.35;;;6.50;99.90;;;6.46;86.76;102257.91;4918881;29;20213;-82
2022/11/27 09:34:04;;;;;;;14.43;8.93;;;6.40;99.90;;;6.58;87.20;102255.94;4928889;29;20197;-81
2022/11/27 09:36:33;;;;;;;15.55;9.00;;;6.50;99.90;;;6.35;86.46;102248.16;4909670;29;20240;-80
2022/11/27 09:44:11;;;;;;;14.80;9.35;;;6.40;99.90;;;6.74;85.94;102245.41;4901321;29;20225;-84
2022/11/27 10:06:19;;;;;;;12.73;7.75;;;6.90;99.90;;;7.03;83.08;102238.13;4685421;30;20296;-79
2022/11/27 10:09:06;;;;;;;15.10;8.90;;;6.90;99.90;;;7.14;82.52;102219.09;4736986;30;20242;-81
2022/11/27 10:11:46;;;;;;;15.68;9.18;;;7.10;99.90;;;7.11;81.87;102229.34;4773980;30;20203;-80
2022/11/27 10:14:48;;;;;;;17.67;10.73;;;7.10;1.00;;;7.03;82.54;102235.44;4879584;29;20189;-81
2022/11/27 10:17:24;;;;;;;12.40;9.18;;;7.10;1.00;;;7.02;82.68;102232.91;4881850;29;20194;-79
2022/11/27 10:20:16;;;;;;;17.13;9.75;;;7.00;1.00;;;7.08;82.72;102230.47;4896868;29;20234;-82
2022/11/27 10:22:59;;;;;;;13.25;9.63;;;7.00;1.00;;;7.35;82.17;102230.50;4877520;29;20304;-81
2022/11/27 10:25:38;;;;;;;14.02;8.13;;;7.20;1.00;;;7.50;81.12;102238.09;4892715;29;20266;-83
2022/11/27 10:28:24;;;;;;;15.85;9.27;;;7.40;1.00;;;7.51;81.04;102229.00;4886175;29;20710;-83
2022/11/27 10:31:00;;;;;;;14.50;9.88;;;7.40;1.00;;;7.66;80.97;102227.50;4870212;29;20214;-81
2022/11/27 10:33:42;;;;;;;19.02;11.52;;;7.50;1.00;;;7.68;80.33;102214.72;4884152;29;20217;-79
2022/11/27 10:36:17;;;;;;;18.60;10.20;;;7.60;1.00;;;7.75;79.65;102223.88;4892015;29;20693;-81
2022/11/27 10:38:49;;;;;;;11.63;9.07;;;7.60;1.00;;;7.75;78.85;102219.34;4923916;29;20228;-83
2022/11/27 10:41:28;;;;;;;16.90;10.35;;;7.70;99.90;;;7.70;78.98;102218.09;4925857;29;20534;-82
2022/11/27 10:44:32;;;;;;;15.35;9.80;;;7.60;99.90;;;7.59;79.09;102212.94;4927731;29;20478;-81
2022/11/27 10:47:08;;;;;;;12.73;8.52;;;7.60;99.90;;;7.81;78.80;102209.81;4928741;29;20269;-81
2022/11/27 10:49:41;;;;;;;17.23;9.00;;;7.70;99.90;;;7.78;78.35;102207.44;4949543;29;20227;-80
2022/11/27 10:52:15;;;;;;;14.93;8.70;;;7.70;99.90;;;7.65;78.84;102209.66;4936359;29;20180;-82
2022/11/27 10:54:53;;;;;;;16.10;8.35;;;7.60;99.90;;;7.82;78.14;102206.13;4952118;29;20206;-80
2022/11/27 10:57:47;;;;;;;15.07;9.63;;;7.70;99.90;;;7.82;78.10;102203.44;4928752;29;20266;-81
2022/11/27 11:00:22;;;;;;;10.35;8.13;;;7.70;99.90;;;7.99;78.56;102207.97;4926886;29;20227;-83